sensor_id;sensor_type;location;lat;lon;timestamp;P1;durP1;ratioP1;P2;durP2;ratioP2
63316;SDS011;49822;41.468;13.560;2022-08-23T00:01:20;5.28;;;2.13;;
63316;SDS011;49822;41.468;13.560;2022-08-23T00:03:51;4.97;;;2.10;;
63316;SDS011;49822;41.468;13.560;2022-08-23T00:06:19;7.95;;;2.40;;
63316;SDS011;49822;41.468;13.560;2022-08-23T00:08:49;4.32;;;1.95;;
63316;SDS011;49822;41.468;13.560;2022-08-23T00:11:32;2.65;;;2.00;;
63316;SDS011;49822;41.468;13.560;2022-08-23T00:14:10;8.63;;;2.25;;
63316;SDS011;49822;41.468;13.560;2022-08-23T00:16:38;4.28;;;2.10;;
63316;SDS011;49822;41.468;13.560;2022-08-23T00:19:08;5.10;;;2.30;;
63316;SDS011;49822;41.468;13.560;2022-08-23T00:21:39;5.43;;;2.10;;
63316;SDS011;49822;41.468;13.560;2022-08-23T00:24:07;3.53;;;2.40;;
63316;SDS011;49822;41.468;13.560;2022-08-23T00:32:13;2.45;;;1.70;;
63316;SDS011;49822;41.468;13.560;2022-08-23T00:34:46;4.80;;;2.08;;
63316;SDS011;49822;41.468;13.560;2022-08-23T00:37:14;4.53;;;2.05;;
63316;SDS011;49822;41.468;13.560;2022-08-23T00:39:43;4.25;;;2.63;;
63316;SDS011;49822;41.468;13.560;2022-08-23T00:42:13;2.35;;;2.05;;
63316;SDS011;49822;41.468;13.560;2022-08-23T00:45:11;2.87;;;1.77;;
63316;SDS011;49822;41.468;13.560;2022-08-23T00:48:04;3.08;;;1.92;;
63316;SDS011;49822;41.468;13.560;2022-08-23T00:53:28;4.60;;;1.90;;
63316;SDS011;49822;41.468;13.560;2022-08-23T00:56:00;3.22;;;2.08;;
63316;SDS011;49822;41.468;13.560;2022-08-23T00:58:29;5.97;;;2.30;;
63316;SDS011;49822;41.468;13.560;2022-08-23T01:01:00;3.25;;;1.90;;
63316;SDS011;49822;41.468;13.560;2022-08-23T01:03:30;3.78;;;1.95;;
63316;SDS011;49822;41.468;13.560;2022-08-23T01:08:37;6.50;;;2.40;;
63316;SDS011;49822;41.468;13.560;2022-08-23T01:11:13;2.60;;;1.95;;
63316;SDS011;49822;41.468;13.560;2022-08-23T01:13:50;4.17;;;1.70;;
63316;SDS011;49822;41.468;13.560;2022-08-23T01:16:32;3.40;;;1.63;;
63316;SDS011;49822;41.468;13.560;2022-08-23T01:19:07;5.32;;;1.85;;
63316;SDS011;49822;41.468;13.560;2022-08-23T01:21:46;3.60;;;1.83;;
63316;SDS011;49822;41.468;13.560;2022-08-23T01:24:19;2.47;;;1.75;;
63316;SDS011;49822;41.468;13.560;2022-08-23T01:27:08;4.15;;;1.98;;
63316;SDS011;49822;41.468;13.560;2022-08-23T01:29:39;6.63;;;2.10;;
63316;SDS011;49822;41.468;13.560;2022-08-23T01:32:08;3.63;;;2.00;;
63316;SDS011;49822;41.468;13.560;2022-08-23T01:34:36;6.38;;;1.98;;
63316;SDS011;49822;41.468;13.560;2022-08-23T01:37:11;2.95;;;1.95;;
63316;SDS011;49822;41.468;13.560;2022-08-23T01:39:39;2.72;;;2.00;;
63316;SDS011;49822;41.468;13.560;2022-08-23T01:42:07;4.47;;;2.55;;
63316;SDS011;49822;41.468;13.560;2022-08-23T01:44:36;4.68;;;2.60;;
63316;SDS011;49822;41.468;13.560;2022-08-23T01:47:03;2.97;;;2.00;;
63316;SDS011;49822;41.468;13.560;2022-08-23T01:49:32;3.28;;;2.00;;
63316;SDS011;49822;41.468;13.560;2022-08-23T01:52:00;2.97;;;2.08;;
63316;SDS011;49822;41.468;13.560;2022-08-23T01:54:28;4.55;;;2.13;;
63316;SDS011;49822;41.468;13.560;2022-08-23T01:56:57;2.83;;;2.08;;
63316;SDS011;49822;41.468;13.560;2022-08-23T01:59:25;5.60;;;2.40;;
63316;SDS011;49822;41.468;13.560;2022-08-23T02:01:53;5.60;;;2.35;;
63316;SDS011;49822;41.468;13.560;2022-08-23T02:04:21;2.92;;;2.00;;
63316;SDS011;49822;41.468;13.560;2022-08-23T02:06:49;3.85;;;1.85;;
63316;SDS011;49822;41.468;13.560;2022-08-23T02:09:22;2.95;;;1.92;;
63316;SDS011;49822;41.468;13.560;2022-08-23T02:11:56;3.90;;;2.08;;
63316;SDS011;49822;41.468;13.560;2022-08-23T02:14:24;4.53;;;2.42;;
63316;SDS011;49822;41.468;13.560;2022-08-23T02:16:55;2.42;;;1.92;;
63316;SDS011;49822;41.468;13.560;2022-08-23T02:19:34;4.50;;;2.33;;
63316;SDS011;49822;41.468;13.560;2022-08-23T02:22:04;4.40;;;1.90;;
63316;SDS011;49822;41.468;13.560;2022-08-23T02:24:33;3.75;;;2.03;;
63316;SDS011;49822;41.468;13.560;2022-08-23T02:27:04;4.00;;;1.75;;
63316;SDS011;49822;41.468;13.560;2022-08-23T02:29:37;9.00;;;1.98;;
63316;SDS011;49822;41.468;13.560;2022-08-23T02:32:08;4.50;;;1.88;;
63316;SDS011;49822;41.468;13.560;2022-08-23T02:34:38;2.58;;;2.38;;
63316;SDS011;49822;41.468;13.560;2022-08-23T02:37:07;3.45;;;2.10;;
63316;SDS011;49822;41.468;13.560;2022-08-23T02:39:37;2.75;;;2.00;;
63316;SDS011;49822;41.468;13.560;2022-08-23T02:42:05;2.63;;;2.10;;
63316;SDS011;49822;41.468;13.560;2022-08-23T02:44:40;3.58;;;2.10;;
63316;SDS011;49822;41.468;13.560;2022-08-23T02:47:07;3.22;;;2.20;;
63316;SDS011;49822;41.468;13.560;2022-08-23T02:49:41;4.93;;;2.00;;
63316;SDS011;49822;41.468;13.560;2022-08-23T02:52:09;2.40;;;2.10;;
63316;SDS011;49822;41.468;13.560;2022-08-23T02:54:37;3.60;;;2.33;;
63316;SDS011;49822;41.468;13.560;2022-08-23T02:57:06;2.75;;;2.00;;
63316;SDS011;49822;41.468;13.560;2022-08-23T02:59:33;2.72;;;2.00;;
63316;SDS011;49822;41.468;13.560;2022-08-23T03:02:00;4.82;;;2.15;;
63316;SDS011;49822;41.468;13.560;2022-08-23T03:04:34;4.32;;;2.40;;
63316;SDS011;49822;41.468;13.560;2022-08-23T03:07:01;4.18;;;2.10;;
63316;SDS011;49822;41.468;13.560;2022-08-23T03:09:30;4.80;;;1.95;;
63316;SDS011;49822;41.468;13.560;2022-08-23T03:11:57;5.15;;;1.90;;
63316;SDS011;49822;41.468;13.560;2022-08-23T03:14:25;2.30;;;1.92;;
63316;SDS011;49822;41.468;13.560;2022-08-23T03:16:53;3.92;;;1.92;;
63316;SDS011;49822;41.468;13.560;2022-08-23T03:19:24;3.80;;;2.15;;
63316;SDS011;49822;41.468;13.560;2022-08-23T03:21:52;5.65;;;2.10;;
63316;SDS011;49822;41.468;13.560;2022-08-23T03:24:21;2.33;;;1.88;;
63316;SDS011;49822;41.468;13.560;2022-08-23T03:26:49;3.45;;;2.03;;
63316;SDS011;49822;41.468;13.560;2022-08-23T03:29:17;3.55;;;1.90;;
63316;SDS011;49822;41.468;13.560;2022-08-23T03:32:00;4.93;;;1.98;;
63316;SDS011;49822;41.468;13.560;2022-08-23T03:34:31;4.75;;;2.03;;
63316;SDS011;49822;41.468;13.560;2022-08-23T03:36:59;3.58;;;1.98;;
63316;SDS011;49822;41.468;13.560;2022-08-23T03:39:27;5.07;;;2.22;;
63316;SDS011;49822;41.468;13.560;2022-08-23T03:41:57;3.83;;;2.17;;
63316;SDS011;49822;41.468;13.560;2022-08-23T03:44:29;3.60;;;1.85;;
63316;SDS011;49822;41.468;13.560;2022-08-23T03:46:56;6.72;;;2.20;;
63316;SDS011;49822;41.468;13.560;2022-08-23T03:49:25;5.80;;;2.25;;
63316;SDS011;49822;41.468;13.560;2022-08-23T03:51:55;3.80;;;2.30;;
63316;SDS011;49822;41.468;13.560;2022-08-23T03:54:22;3.20;;;1.77;;
63316;SDS011;49822;41.468;13.560;2022-08-23T03:57:03;2.97;;;1.77;;
63316;SDS011;49822;41.468;13.560;2022-08-23T03:59:36;6.22;;;1.98;;
63316;SDS011;49822;41.468;13.560;2022-08-23T04:02:07;3.33;;;2.40;;
63316;SDS011;49822;41.468;13.560;2022-08-23T04:04:35;4.68;;;2.15;;
63316;SDS011;49822;41.468;13.560;2022-08-23T04:07:21;5.28;;;1.92;;
63316;SDS011;49822;41.468;13.560;2022-08-23T04:09:54;3.88;;;2.00;;
63316;SDS011;49822;41.468;13.560;2022-08-23T04:12:24;3.65;;;2.30;;
63316;SDS011;49822;41.468;13.560;2022-08-23T04:14:51;3.25;;;2.20;;
63316;SDS011;49822;41.468;13.560;2022-08-23T04:17:21;4.85;;;2.30;;
63316;SDS011;49822;41.468;13.560;2022-08-23T04:19:49;6.78;;;2.50;;
63316;SDS011;49822;41.468;13.560;2022-08-23T04:22:18;3.80;;;2.35;;
63316;SDS011;49822;41.468;13.560;2022-08-23T04:24:46;4.32;;;2.60;;
63316;SDS011;49822;41.468;13.560;2022-08-23T04:27:15;3.60;;;2.30;;
63316;SDS011;49822;41.468;13.560;2022-08-23T04:29:44;4.72;;;2.53;;
63316;SDS011;49822;41.468;13.560;2022-08-23T04:32:13;6.75;;;2.85;;
63316;SDS011;49822;41.468;13.560;2022-08-23T04:34:55;5.63;;;2.40;;
63316;SDS011;49822;41.468;13.560;2022-08-23T04:37:23;11.70;;;2.38;;
63316;SDS011;49822;41.468;13.560;2022-08-23T04:39:51;4.47;;;2.65;;
63316;SDS011;49822;41.468;13.560;2022-08-23T04:42:40;4.82;;;2.20;;
63316;SDS011;49822;41.468;13.560;2022-08-23T04:45:09;6.25;;;2.33;;
63316;SDS011;49822;41.468;13.560;2022-08-23T04:47:41;3.85;;;2.70;;
63316;SDS011;49822;41.468;13.560;2022-08-23T04:50:10;6.13;;;2.15;;
63316;SDS011;49822;41.468;13.560;2022-08-23T04:53:10;4.97;;;2.67;;
63316;SDS011;49822;41.468;13.560;2022-08-23T04:55:49;5.28;;;2.67;;
63316;SDS011;49822;41.468;13.560;2022-08-23T04:58:19;3.87;;;2.60;;
63316;SDS011;49822;41.468;13.560;2022-08-23T05:00:51;4.35;;;2.38;;
63316;SDS011;49822;41.468;13.560;2022-08-23T05:03:24;7.45;;;2.90;;
63316;SDS011;49822;41.468;13.560;2022-08-23T05:05:53;3.88;;;2.20;;
63316;SDS011;49822;41.468;13.560;2022-08-23T05:08:26;4.20;;;2.55;;
63316;SDS011;49822;41.468;13.560;2022-08-23T05:10:54;4.07;;;2.60;;
63316;SDS011;49822;41.468;13.560;2022-08-23T05:13:22;4.68;;;2.55;;
63316;SDS011;49822;41.468;13.560;2022-08-23T05:15:50;5.05;;;2.60;;
63316;SDS011;49822;41.468;13.560;2022-08-23T05:18:22;4.55;;;2.47;;
63316;SDS011;49822;41.468;13.560;2022-08-23T05:20:51;5.05;;;2.30;;
63316;SDS011;49822;41.468;13.560;2022-08-23T05:23:23;5.60;;;2.75;;
63316;SDS011;49822;41.468;13.560;2022-08-23T05:26:10;3.45;;;2.22;;
63316;SDS011;49822;41.468;13.560;2022-08-23T05:28:41;3.58;;;2.20;;
63316;SDS011;49822;41.468;13.560;2022-08-23T05:31:16;4.45;;;2.20;;
63316;SDS011;49822;41.468;13.560;2022-08-23T05:33:51;3.67;;;2.53;;
63316;SDS011;49822;41.468;13.560;2022-08-23T05:36:44;4.78;;;2.78;;
63316;SDS011;49822;41.468;13.560;2022-08-23T05:39:22;3.90;;;2.47;;
63316;SDS011;49822;41.468;13.560;2022-08-23T05:42:06;3.40;;;2.85;;
63316;SDS011;49822;41.468;13.560;2022-08-23T05:44:36;4.10;;;2.55;;
63316;SDS011;49822;41.468;13.560;2022-08-23T05:47:08;4.78;;;2.40;;
63316;SDS011;49822;41.468;13.560;2022-08-23T05:50:00;6.00;;;2.38;;
63316;SDS011;49822;41.468;13.560;2022-08-23T05:52:33;5.38;;;2.55;;
63316;SDS011;49822;41.468;13.560;2022-08-23T05:55:03;7.93;;;2.65;;
63316;SDS011;49822;41.468;13.560;2022-08-23T05:57:39;3.67;;;2.60;;
63316;SDS011;49822;41.468;13.560;2022-08-23T06:00:09;2.80;;;2.45;;
63316;SDS011;49822;41.468;13.560;2022-08-23T06:02:44;6.47;;;3.10;;
63316;SDS011;49822;41.468;13.560;2022-08-23T06:08:44;6.07;;;2.78;;
63316;SDS011;49822;41.468;13.560;2022-08-23T06:11:14;4.10;;;2.67;;
63316;SDS011;49822;41.468;13.560;2022-08-23T06:13:47;6.72;;;2.65;;
63316;SDS011;49822;41.468;13.560;2022-08-23T06:16:17;7.03;;;2.45;;
63316;SDS011;49822;41.468;13.560;2022-08-23T06:18:49;3.28;;;2.22;;
63316;SDS011;49822;41.468;13.560;2022-08-23T06:21:39;8.68;;;2.58;;
63316;SDS011;49822;41.468;13.560;2022-08-23T06:28:27;4.30;;;2.30;;
63316;SDS011;49822;41.468;13.560;2022-08-23T06:30:57;3.20;;;2.50;;
63316;SDS011;49822;41.468;13.560;2022-08-23T06:33:30;5.97;;;2.58;;
63316;SDS011;49822;41.468;13.560;2022-08-23T06:36:33;2.78;;;2.30;;
63316;SDS011;49822;41.468;13.560;2022-08-23T06:39:23;2.55;;;2.15;;
63316;SDS011;49822;41.468;13.560;2022-08-23T06:42:11;6.75;;;2.50;;
63316;SDS011;49822;41.468;13.560;2022-08-23T06:45:02;3.10;;;2.40;;
63316;SDS011;49822;41.468;13.560;2022-08-23T06:47:37;5.85;;;2.75;;
63316;SDS011;49822;41.468;13.560;2022-08-23T06:50:06;4.28;;;2.28;;
63316;SDS011;49822;41.468;13.560;2022-08-23T06:52:53;4.05;;;2.30;;
63316;SDS011;49822;41.468;13.560;2022-08-23T06:55:38;3.53;;;2.10;;
63316;SDS011;49822;41.468;13.560;2022-08-23T06:58:16;6.68;;;2.30;;
63316;SDS011;49822;41.468;13.560;2022-08-23T07:01:17;5.00;;;2.50;;
63316;SDS011;49822;41.468;13.560;2022-08-23T07:04:22;5.60;;;2.15;;
63316;SDS011;49822;41.468;13.560;2022-08-23T07:07:00;5.55;;;2.35;;
63316;SDS011;49822;41.468;13.560;2022-08-23T07:09:34;4.43;;;2.10;;
63316;SDS011;49822;41.468;13.560;2022-08-23T07:12:02;4.47;;;2.17;;
63316;SDS011;49822;41.468;13.560;2022-08-23T07:17:02;3.78;;;2.00;;
63316;SDS011;49822;41.468;13.560;2022-08-23T07:19:32;3.00;;;1.95;;
63316;SDS011;49822;41.468;13.560;2022-08-23T07:22:01;4.28;;;2.30;;
63316;SDS011;49822;41.468;13.560;2022-08-23T07:24:30;5.28;;;2.20;;
63316;SDS011;49822;41.468;13.560;2022-08-23T07:27:01;3.67;;;2.42;;
63316;SDS011;49822;41.468;13.560;2022-08-23T07:29:58;3.08;;;2.00;;
63316;SDS011;49822;41.468;13.560;2022-08-23T07:32:25;4.32;;;2.17;;
63316;SDS011;49822;41.468;13.560;2022-08-23T07:34:58;6.45;;;2.60;;
63316;SDS011;49822;41.468;13.560;2022-08-23T07:38:00;3.88;;;2.15;;
63316;SDS011;49822;41.468;13.560;2022-08-23T07:41:15;7.13;;;2.63;;
63316;SDS011;49822;41.468;13.560;2022-08-23T07:44:07;3.20;;;2.20;;
63316;SDS011;49822;41.468;13.560;2022-08-23T07:46:43;5.55;;;2.92;;
63316;SDS011;49822;41.468;13.560;2022-08-23T07:49:13;5.20;;;2.30;;
63316;SDS011;49822;41.468;13.560;2022-08-23T07:51:46;6.30;;;2.25;;
63316;SDS011;49822;41.468;13.560;2022-08-23T07:54:16;4.40;;;2.20;;
63316;SDS011;49822;41.468;13.560;2022-08-23T07:57:08;6.90;;;2.67;;
63316;SDS011;49822;41.468;13.560;2022-08-23T08:00:00;8.20;;;3.75;;
63316;SDS011;49822;41.468;13.560;2022-08-23T08:02:43;7.68;;;5.30;;
63316;SDS011;49822;41.468;13.560;2022-08-23T08:05:25;6.22;;;3.70;;
63316;SDS011;49822;41.468;13.560;2022-08-23T08:07:55;4.60;;;2.80;;
63316;SDS011;49822;41.468;13.560;2022-08-23T08:10:23;3.38;;;2.67;;
63316;SDS011;49822;41.468;13.560;2022-08-23T08:12:52;8.05;;;3.00;;
63316;SDS011;49822;41.468;13.560;2022-08-23T08:15:20;5.47;;;3.08;;
63316;SDS011;49822;41.468;13.560;2022-08-23T08:18:01;4.80;;;2.78;;
63316;SDS011;49822;41.468;13.560;2022-08-23T08:20:53;5.63;;;3.28;;
63316;SDS011;49822;41.468;13.560;2022-08-23T08:23:39;6.78;;;3.05;;
63316;SDS011;49822;41.468;13.560;2022-08-23T08:26:26;4.10;;;2.33;;
63316;SDS011;49822;41.468;13.560;2022-08-23T08:28:55;5.35;;;2.58;;
63316;SDS011;49822;41.468;13.560;2022-08-23T08:31:24;4.05;;;2.50;;
63316;SDS011;49822;41.468;13.560;2022-08-23T08:33:53;4.18;;;2.80;;
63316;SDS011;49822;41.468;13.560;2022-08-23T08:38:58;5.18;;;2.90;;
63316;SDS011;49822;41.468;13.560;2022-08-23T08:44:21;4.63;;;2.45;;
63316;SDS011;49822;41.468;13.560;2022-08-23T08:47:48;6.13;;;2.50;;
63316;SDS011;49822;41.468;13.560;2022-08-23T08:52:44;5.15;;;2.63;;
63316;SDS011;49822;41.468;13.560;2022-08-23T08:55:35;4.72;;;2.33;;
63316;SDS011;49822;41.468;13.560;2022-08-23T08:58:21;7.35;;;2.38;;
63316;SDS011;49822;41.468;13.560;2022-08-23T09:00:53;6.30;;;2.40;;
63316;SDS011;49822;41.468;13.560;2022-08-23T09:03:23;3.97;;;2.05;;
63316;SDS011;49822;41.468;13.560;2022-08-23T09:20:11;3.38;;;2.15;;
63316;SDS011;49822;41.468;13.560;2022-08-23T09:22:46;3.35;;;2.08;;
63316;SDS011;49822;41.468;13.560;2022-08-23T09:25:24;2.25;;;2.00;;
63316;SDS011;49822;41.468;13.560;2022-08-23T09:27:59;5.45;;;2.28;;
63316;SDS011;49822;41.468;13.560;2022-08-23T09:30:46;3.83;;;1.90;;
63316;SDS011;49822;41.468;13.560;2022-08-23T09:33:23;5.00;;;1.90;;
63316;SDS011;49822;41.468;13.560;2022-08-23T09:36:03;3.55;;;2.08;;
63316;SDS011;49822;41.468;13.560;2022-08-23T09:41:27;2.72;;;1.85;;
63316;SDS011;49822;41.468;13.560;2022-08-23T09:44:00;2.75;;;2.10;;
63316;SDS011;49822;41.468;13.560;2022-08-23T09:46:32;3.15;;;1.90;;
63316;SDS011;49822;41.468;13.560;2022-08-23T09:52:00;6.10;;;2.20;;
63316;SDS011;49822;41.468;13.560;2022-08-23T09:54:54;4.78;;;1.95;;
63316;SDS011;49822;41.468;13.560;2022-08-23T09:57:29;2.60;;;1.80;;
63316;SDS011;49822;41.468;13.560;2022-08-23T10:00:45;4.47;;;2.30;;
63316;SDS011;49822;41.468;13.560;2022-08-23T10:02:57;2.80;;;1.63;;
63316;SDS011;49822;41.468;13.560;2022-08-23T10:06:00;6.68;;;1.95;;
63316;SDS011;49822;41.468;13.560;2022-08-23T10:08:34;5.10;;;1.77;;
63316;SDS011;49822;41.468;13.560;2022-08-23T10:11:15;4.43;;;2.00;;
63316;SDS011;49822;41.468;13.560;2022-08-23T10:13:56;3.22;;;2.15;;
63316;SDS011;49822;41.468;13.560;2022-08-23T10:19:05;2.55;;;1.88;;
63316;SDS011;49822;41.468;13.560;2022-08-23T10:21:38;5.32;;;2.03;;
63316;SDS011;49822;41.468;13.560;2022-08-23T10:26:48;2.50;;;1.80;;
63316;SDS011;49822;41.468;13.560;2022-08-23T10:30:10;5.20;;;1.70;;
63316;SDS011;49822;41.468;13.560;2022-08-23T10:35:38;3.20;;;1.92;;
63316;SDS011;49822;41.468;13.560;2022-08-23T10:38:15;3.55;;;1.88;;
63316;SDS011;49822;41.468;13.560;2022-08-23T10:45:54;3.70;;;1.70;;
63316;SDS011;49822;41.468;13.560;2022-08-23T10:48:37;3.60;;;2.20;;
63316;SDS011;49822;41.468;13.560;2022-08-23T10:51:22;2.35;;;1.70;;
63316;SDS011;49822;41.468;13.560;2022-08-23T10:54:01;4.03;;;1.80;;
63316;SDS011;49822;41.468;13.560;2022-08-23T10:59:22;2.65;;;1.70;;
63316;SDS011;49822;41.468;13.560;2022-08-23T11:05:02;3.03;;;1.70;;
63316;SDS011;49822;41.468;13.560;2022-08-23T11:08:01;2.55;;;1.90;;
63316;SDS011;49822;41.468;13.560;2022-08-23T11:10:48;3.22;;;2.10;;
63316;SDS011;49822;41.468;13.560;2022-08-23T11:13:49;3.22;;;1.83;;
63316;SDS011;49822;41.468;13.560;2022-08-23T11:16:22;2.08;;;1.65;;
63316;SDS011;49822;41.468;13.560;2022-08-23T11:18:55;2.35;;;1.60;;
63316;SDS011;49822;41.468;13.560;2022-08-23T11:34:47;2.22;;;1.65;;
63316;SDS011;49822;41.468;13.560;2022-08-23T11:43:26;2.28;;;1.48;;
63316;SDS011;49822;41.468;13.560;2022-08-23T11:45:54;2.47;;;1.83;;
63316;SDS011;49822;41.468;13.560;2022-08-23T12:02:56;2.13;;;1.60;;
63316;SDS011;49822;41.468;13.560;2022-08-23T12:18:44;1.52;;;1.40;;
63316;SDS011;49822;41.468;13.560;2022-08-23T12:23:58;2.17;;;1.80;;
63316;SDS011;49822;41.468;13.560;2022-08-23T12:26:51;4.90;;;1.60;;
63316;SDS011;49822;41.468;13.560;2022-08-23T12:32:46;3.85;;;1.95;;
63316;SDS011;49822;41.468;13.560;2022-08-23T12:41:12;5.25;;;1.90;;
63316;SDS011;49822;41.468;13.560;2022-08-23T12:44:16;3.60;;;2.10;;
63316;SDS011;49822;41.468;13.560;2022-08-23T12:46:47;3.88;;;1.73;;
63316;SDS011;49822;41.468;13.560;2022-08-23T12:49:25;2.92;;;1.65;;
63316;SDS011;49822;41.468;13.560;2022-08-23T12:51:59;2.15;;;1.75;;
63316;SDS011;49822;41.468;13.560;2022-08-23T12:54:36;3.67;;;2.13;;
63316;SDS011;49822;41.468;13.560;2022-08-23T12:57:10;4.72;;;1.90;;
63316;SDS011;49822;41.468;13.560;2022-08-23T12:59:50;4.30;;;1.83;;
63316;SDS011;49822;41.468;13.560;2022-08-23T13:02:46;3.75;;;2.90;;
63316;SDS011;49822;41.468;13.560;2022-08-23T13:05:36;4.70;;;3.00;;
63316;SDS011;49822;41.468;13.560;2022-08-23T13:08:14;3.97;;;2.47;;
63316;SDS011;49822;41.468;13.560;2022-08-23T13:11:01;6.95;;;2.75;;
63316;SDS011;49822;41.468;13.560;2022-08-23T13:13:35;4.88;;;2.75;;
63316;SDS011;49822;41.468;13.560;2022-08-23T13:16:25;5.78;;;3.15;;
63316;SDS011;49822;41.468;13.560;2022-08-23T13:18:55;6.78;;;2.90;;
63316;SDS011;49822;41.468;13.560;2022-08-23T13:21:40;6.47;;;2.88;;
63316;SDS011;49822;41.468;13.560;2022-08-23T13:29:47;5.23;;;2.57;;
63316;SDS011;49822;41.468;13.560;2022-08-23T13:32:25;6.68;;;2.70;;
63316;SDS011;49822;41.468;13.560;2022-08-23T13:35:25;5.22;;;2.40;;
63316;SDS011;49822;41.468;13.560;2022-08-23T13:40:40;3.05;;;2.40;;
63316;SDS011;49822;41.468;13.560;2022-08-23T13:43:18;4.65;;;2.38;;
63316;SDS011;49822;41.468;13.560;2022-08-23T13:45:53;3.28;;;2.35;;
63316;SDS011;49822;41.468;13.560;2022-08-23T13:50:52;4.18;;;2.67;;
63316;SDS011;49822;41.468;13.560;2022-08-23T13:53:21;3.85;;;2.40;;
63316;SDS011;49822;41.468;13.560;2022-08-23T13:55:51;2.50;;;2.10;;
63316;SDS011;49822;41.468;13.560;2022-08-23T13:58:26;3.03;;;2.25;;
63316;SDS011;49822;41.468;13.560;2022-08-23T14:00:56;3.95;;;2.20;;
63316;SDS011;49822;41.468;13.560;2022-08-23T14:03:27;3.58;;;2.30;;
63316;SDS011;49822;41.468;13.560;2022-08-23T14:05:57;3.45;;;2.00;;
63316;SDS011;49822;41.468;13.560;2022-08-23T14:08:24;2.78;;;1.92;;
63316;SDS011;49822;41.468;13.560;2022-08-23T14:10:51;3.17;;;1.80;;
63316;SDS011;49822;41.468;13.560;2022-08-23T14:13:20;2.15;;;1.90;;
63316;SDS011;49822;41.468;13.560;2022-08-23T14:15:50;2.70;;;1.55;;
63316;SDS011;49822;41.468;13.560;2022-08-23T14:18:38;2.83;;;1.60;;
63316;SDS011;49822;41.468;13.560;2022-08-23T14:21:26;2.83;;;1.35;;
63316;SDS011;49822;41.468;13.560;2022-08-23T14:23:54;2.42;;;1.60;;
63316;SDS011;49822;41.468;13.560;2022-08-23T14:26:22;1.92;;;1.48;;
63316;SDS011;49822;41.468;13.560;2022-08-23T14:28:50;1.90;;;1.63;;
63316;SDS011;49822;41.468;13.560;2022-08-23T14:31:20;4.30;;;1.85;;
63316;SDS011;49822;41.468;13.560;2022-08-23T14:33:47;2.50;;;1.90;;
63316;SDS011;49822;41.468;13.560;2022-08-23T14:36:15;2.92;;;1.90;;
63316;SDS011;49822;41.468;13.560;2022-08-23T14:38:43;3.13;;;2.10;;
63316;SDS011;49822;41.468;13.560;2022-08-23T14:41:19;3.58;;;2.03;;
63316;SDS011;49822;41.468;13.560;2022-08-23T14:43:50;3.03;;;1.90;;
63316;SDS011;49822;41.468;13.560;2022-08-23T14:46:20;3.28;;;2.05;;
63316;SDS011;49822;41.468;13.560;2022-08-23T14:48:50;4.00;;;1.80;;
63316;SDS011;49822;41.468;13.560;2022-08-23T14:53:55;2.30;;;1.80;;
63316;SDS011;49822;41.468;13.560;2022-08-23T14:56:23;1.95;;;1.80;;
63316;SDS011;49822;41.468;13.560;2022-08-23T14:58:50;2.83;;;1.92;;
63316;SDS011;49822;41.468;13.560;2022-08-23T15:01:18;2.55;;;1.70;;
63316;SDS011;49822;41.468;13.560;2022-08-23T15:03:47;2.05;;;1.45;;
63316;SDS011;49822;41.468;13.560;2022-08-23T15:06:16;2.38;;;1.75;;
63316;SDS011;49822;41.468;13.560;2022-08-23T15:08:44;2.55;;;1.90;;
63316;SDS011;49822;41.468;13.560;2022-08-23T15:11:14;2.40;;;1.80;;
63316;SDS011;49822;41.468;13.560;2022-08-23T15:14:02;3.78;;;1.80;;
63316;SDS011;49822;41.468;13.560;2022-08-23T15:16:30;4.03;;;1.80;;
63316;SDS011;49822;41.468;13.560;2022-08-23T15:18:59;3.65;;;1.83;;
63316;SDS011;49822;41.468;13.560;2022-08-23T15:21:26;2.25;;;1.67;;
63316;SDS011;49822;41.468;13.560;2022-08-23T15:23:54;3.35;;;1.80;;
63316;SDS011;49822;41.468;13.560;2022-08-23T15:26:22;3.08;;;1.70;;
63316;SDS011;49822;41.468;13.560;2022-08-23T15:28:52;2.30;;;1.70;;
63316;SDS011;49822;41.468;13.560;2022-08-23T15:31:20;3.03;;;1.70;;
63316;SDS011;49822;41.468;13.560;2022-08-23T15:33:47;2.92;;;1.90;;
63316;SDS011;49822;41.468;13.560;2022-08-23T15:36:15;2.70;;;1.90;;
63316;SDS011;49822;41.468;13.560;2022-08-23T15:38:43;2.42;;;1.70;;
63316;SDS011;49822;41.468;13.560;2022-08-23T15:41:14;2.88;;;1.80;;
63316;SDS011;49822;41.468;13.560;2022-08-23T15:43:44;3.67;;;1.50;;
63316;SDS011;49822;41.468;13.560;2022-08-23T15:46:16;2.25;;;1.60;;
63316;SDS011;49822;41.468;13.560;2022-08-23T15:48:48;2.63;;;1.67;;
63316;SDS011;49822;41.468;13.560;2022-08-23T15:51:20;1.75;;;1.50;;
63316;SDS011;49822;41.468;13.560;2022-08-23T15:53:47;2.63;;;1.60;;
63316;SDS011;49822;41.468;13.560;2022-08-23T15:56:17;2.97;;;1.60;;
63316;SDS011;49822;41.468;13.560;2022-08-23T15:58:47;3.47;;;1.50;;
63316;SDS011;49822;41.468;13.560;2022-08-23T16:01:14;2.30;;;1.80;;
63316;SDS011;49822;41.468;13.560;2022-08-23T16:03:48;3.42;;;1.55;;
63316;SDS011;49822;41.468;13.560;2022-08-23T16:06:16;2.33;;;1.55;;
63316;SDS011;49822;41.468;13.560;2022-08-23T16:08:44;3.08;;;1.70;;
63316;SDS011;49822;41.468;13.560;2022-08-23T16:11:15;2.05;;;1.60;;
63316;SDS011;49822;41.468;13.560;2022-08-23T16:13:43;2.50;;;1.90;;
63316;SDS011;49822;41.468;13.560;2022-08-23T16:18:47;3.47;;;1.90;;
63316;SDS011;49822;41.468;13.560;2022-08-23T16:23:46;3.30;;;1.77;;
63316;SDS011;49822;41.468;13.560;2022-08-23T16:26:19;5.32;;;3.20;;
63316;SDS011;49822;41.468;13.560;2022-08-23T16:29:01;4.75;;;2.75;;
63316;SDS011;49822;41.468;13.560;2022-08-23T16:31:33;6.15;;;2.80;;
63316;SDS011;49822;41.468;13.560;2022-08-23T16:37:15;3.08;;;1.75;;
63316;SDS011;49822;41.468;13.560;2022-08-23T16:40:03;3.03;;;1.80;;
63316;SDS011;49822;41.468;13.560;2022-08-23T16:42:53;2.30;;;1.80;;
63316;SDS011;49822;41.468;13.560;2022-08-23T16:45:42;2.75;;;1.70;;
63316;SDS011;49822;41.468;13.560;2022-08-23T16:48:30;2.17;;;1.52;;
63316;SDS011;49822;41.468;13.560;2022-08-23T16:51:18;2.33;;;1.55;;
63316;SDS011;49822;41.468;13.560;2022-08-23T16:54:07;2.72;;;1.63;;
63316;SDS011;49822;41.468;13.560;2022-08-23T16:56:56;2.28;;;1.58;;
63316;SDS011;49822;41.468;13.560;2022-08-23T16:59:44;1.48;;;1.38;;
63316;SDS011;49822;41.468;13.560;2022-08-23T17:02:34;3.50;;;1.70;;
63316;SDS011;49822;41.468;13.560;2022-08-23T17:05:17;2.30;;;1.90;;
63316;SDS011;49822;41.468;13.560;2022-08-23T17:07:53;3.90;;;1.88;;
63316;SDS011;49822;41.468;13.560;2022-08-23T17:10:22;2.60;;;1.60;;
63316;SDS011;49822;41.468;13.560;2022-08-23T17:12:52;1.70;;;1.60;;
63316;SDS011;49822;41.468;13.560;2022-08-23T17:15:27;2.42;;;1.73;;
63316;SDS011;49822;41.468;13.560;2022-08-23T17:17:59;4.43;;;1.65;;
63316;SDS011;49822;41.468;13.560;2022-08-23T17:20:28;2.47;;;1.80;;
63316;SDS011;49822;41.468;13.560;2022-08-23T17:22:58;4.00;;;1.70;;
63316;SDS011;49822;41.468;13.560;2022-08-23T17:25:25;2.95;;;1.80;;
63316;SDS011;49822;41.468;13.560;2022-08-23T17:27:54;2.53;;;1.70;;
63316;SDS011;49822;41.468;13.560;2022-08-23T17:30:23;2.35;;;1.80;;
63316;SDS011;49822;41.468;13.560;2022-08-23T17:32:55;2.25;;;1.55;;
63316;SDS011;49822;41.468;13.560;2022-08-23T17:35:24;3.38;;;1.70;;
63316;SDS011;49822;41.468;13.560;2022-08-23T17:38:00;3.60;;;1.90;;
63316;SDS011;49822;41.468;13.560;2022-08-23T17:40:31;3.05;;;1.77;;
63316;SDS011;49822;41.468;13.560;2022-08-23T17:43:01;2.53;;;1.67;;
63316;SDS011;49822;41.468;13.560;2022-08-23T17:45:37;4.43;;;2.38;;
63316;SDS011;49822;41.468;13.560;2022-08-23T17:48:09;3.08;;;1.98;;